createdAt,value
2018-09-21T00:02:02.518Z,6.50
2018-09-21T00:04:29.825Z,6.70
2018-09-21T00:06:57.129Z,7.60
2018-09-21T00:09:24.408Z,6.07
2018-09-21T00:11:51.705Z,7.03
2018-09-21T00:14:19.008Z,7.10
2018-09-21T00:16:46.291Z,6.70
2018-09-21T00:19:13.585Z,7.17
2018-09-21T00:21:40.950Z,7.10
2018-09-21T00:24:08.238Z,6.90
2018-09-21T00:26:35.533Z,7.00
2018-09-21T00:29:02.833Z,5.93
2018-09-21T00:31:30.122Z,6.40
2018-09-21T00:33:57.401Z,6.63
2018-09-21T00:36:24.733Z,6.90
2018-09-21T00:38:52.033Z,6.63
2018-09-21T00:41:19.337Z,7.70
2018-09-21T00:43:46.636Z,7.60
2018-09-21T00:46:14.037Z,7.00
2018-09-21T00:48:41.391Z,6.90
2018-09-21T00:51:08.701Z,7.80
2018-09-21T00:53:36.011Z,7.27
2018-09-21T00:56:03.321Z,6.67
2018-09-21T00:58:30.631Z,6.40
2018-09-21T01:00:57.908Z,7.47
2018-09-21T01:03:25.176Z,6.80
2018-09-21T01:05:52.446Z,6.53
2018-09-21T01:08:19.778Z,6.40
2018-09-21T01:10:47.044Z,7.40
2018-09-21T01:13:14.325Z,7.10
2018-09-21T01:15:41.616Z,7.70
2018-09-21T01:18:08.893Z,7.50
2018-09-21T01:20:36.161Z,7.57
2018-09-21T01:23:03.443Z,7.63
2018-09-21T01:25:30.705Z,7.10
2018-09-21T01:27:57.954Z,7.47
2018-09-21T01:30:25.249Z,7.00
2018-09-21T01:32:52.575Z,9.00
2018-09-21T01:35:19.800Z,8.33
2018-09-21T01:37:47.049Z,7.80
2018-09-21T01:40:14.297Z,8.40
2018-09-21T01:42:41.562Z,7.40
2018-09-21T01:45:08.842Z,8.00
2018-09-21T01:47:36.142Z,8.10
2018-09-21T01:50:03.457Z,8.57
2018-09-21T01:52:30.817Z,7.93
2018-09-21T01:54:58.090Z,7.80
2018-09-21T01:57:25.345Z,7.27
2018-09-21T01:59:52.592Z,7.77
2018-09-21T02:02:19.861Z,7.70
2018-09-21T02:04:47.145Z,7.60
2018-09-21T02:07:14.413Z,7.50
2018-09-21T02:09:41.817Z,7.70
2018-09-21T02:12:09.029Z,7.47
2018-09-21T02:14:36.307Z,7.40
2018-09-21T02:17:03.865Z,7.60
2018-09-21T02:19:31.148Z,7.77
2018-09-21T02:21:58.420Z,7.73
2018-09-21T02:24:25.668Z,7.20
2018-09-21T02:26:52.957Z,7.27
2018-09-21T02:29:20.249Z,8.63
2018-09-21T02:31:48.325Z,8.27
2018-09-21T02:34:15.849Z,7.73
2018-09-21T02:36:43.266Z,7.07
2018-09-21T02:39:10.532Z,8.17
2018-09-21T02:41:37.842Z,7.17
2018-09-21T02:44:05.734Z,8.93
2018-09-21T02:46:33.038Z,8.03
2018-09-21T02:49:00.458Z,9.53
2018-09-21T02:51:27.729Z,8.87
2018-09-21T02:53:55.118Z,8.00
2018-09-21T02:56:22.454Z,8.37
2018-09-21T02:58:50.037Z,8.83
2018-09-21T03:01:17.474Z,8.17
2018-09-21T03:03:44.898Z,7.90
2018-09-21T03:06:12.163Z,9.07
2018-09-21T03:08:39.445Z,8.73
2018-09-21T03:11:06.726Z,8.97
2018-09-21T03:13:34.007Z,9.43
2018-09-21T03:16:01.291Z,8.60
2018-09-21T03:18:28.569Z,8.60
2018-09-21T03:20:55.869Z,8.77
2018-09-21T03:23:23.145Z,9.10
2018-09-21T03:25:50.417Z,9.10
2018-09-21T03:28:17.697Z,8.30
2018-09-21T03:30:44.967Z,9.23
2018-09-21T03:33:12.261Z,8.67
2018-09-21T03:35:39.518Z,8.67
2018-09-21T03:38:06.798Z,7.80
2018-09-21T03:40:34.105Z,9.73
2018-09-21T03:43:01.382Z,8.90
2018-09-21T03:45:28.719Z,9.50
2018-09-21T03:47:56.019Z,8.90
2018-09-21T03:50:23.282Z,9.00
2018-09-21T03:52:50.593Z,8.20
2018-09-21T03:55:17.894Z,8.60
2018-09-21T03:57:45.175Z,9.20
2018-09-21T04:00:12.497Z,9.30
2018-09-21T04:02:39.851Z,8.90
2018-09-21T04:05:07.178Z,8.20
2018-09-21T04:07:34.478Z,8.63
2018-09-21T04:10:01.885Z,8.67
2018-09-21T04:12:29.193Z,8.73
2018-09-21T04:14:56.517Z,9.00
2018-09-21T04:17:23.825Z,9.20
2018-09-21T04:19:51.132Z,9.07
2018-09-21T04:22:18.446Z,9.93
2018-09-21T04:24:45.841Z,10.43
2018-09-21T04:27:13.224Z,10.93
2018-09-21T04:29:40.549Z,9.90
2018-09-21T04:32:07.855Z,9.43
2018-09-21T04:34:35.183Z,9.33
2018-09-21T04:37:02.486Z,10.30
2018-09-21T04:39:29.792Z,9.67
2018-09-21T04:41:57.101Z,11.40
2018-09-21T04:44:24.413Z,11.67
2018-09-21T04:46:51.738Z,12.00
2018-09-21T04:49:19.029Z,10.70
2018-09-21T04:51:46.354Z,10.20
2018-09-21T04:54:13.717Z,9.87
2018-09-21T04:56:41.050Z,10.20
2018-09-21T04:59:08.344Z,9.83
2018-09-21T05:01:35.657Z,10.60
2018-09-21T05:04:02.965Z,10.47
2018-09-21T05:06:30.254Z,9.60
2018-09-21T05:08:57.629Z,9.83
2018-09-21T05:11:24.941Z,9.70
2018-09-21T05:13:52.250Z,10.13
2018-09-21T05:16:19.525Z,11.00
2018-09-21T05:18:46.917Z,9.90
2018-09-21T05:21:14.562Z,9.33
2018-09-21T05:23:41.941Z,9.73
2018-09-21T05:26:09.248Z,10.30
2018-09-21T05:28:36.550Z,9.60
2018-09-21T05:31:03.854Z,10.90
2018-09-21T05:33:31.149Z,9.53
2018-09-21T05:35:58.433Z,9.80
2018-09-21T05:38:25.702Z,9.83
2018-09-21T05:40:52.986Z,9.87
2018-09-21T05:43:20.267Z,10.23
2018-09-21T05:45:48.393Z,8.90
2018-09-21T05:48:15.665Z,9.93
2018-09-21T05:50:42.966Z,10.57
2018-09-21T05:53:10.278Z,10.03
2018-09-21T05:55:37.570Z,9.60
2018-09-21T05:58:04.933Z,10.20
2018-09-21T06:00:32.245Z,10.33
2018-09-21T06:02:59.588Z,9.83
2018-09-21T06:05:26.829Z,10.13
2018-09-21T06:07:54.175Z,10.37
2018-09-21T06:10:21.405Z,11.60
2018-09-21T06:12:48.697Z,12.37
2018-09-21T06:15:15.959Z,10.73
2018-09-21T06:17:43.324Z,10.70
2018-09-21T06:20:12.108Z,10.27
2018-09-21T06:22:45.035Z,10.00
2018-09-21T06:25:05.831Z,10.90
2018-09-21T06:27:33.112Z,10.83
2018-09-21T06:30:00.373Z,10.43
2018-09-21T06:32:27.626Z,10.03
2018-09-21T06:34:54.884Z,9.50
2018-09-21T06:37:22.125Z,10.23
2018-09-21T06:39:49.462Z,10.30
2018-09-21T06:42:16.713Z,10.37
2018-09-21T06:44:43.982Z,10.40
2018-09-21T06:47:11.266Z,10.90
2018-09-21T06:49:38.526Z,8.60
2018-09-21T06:52:05.837Z,10.27
2018-09-21T06:54:33.096Z,10.47
2018-09-21T06:57:00.354Z,9.43
2018-09-21T06:59:27.633Z,10.30
2018-09-21T07:01:54.901Z,9.43
2018-09-21T07:04:22.170Z,8.87
2018-09-21T07:06:49.512Z,10.40
2018-09-21T07:09:16.813Z,10.20
2018-09-21T07:11:44.080Z,9.73
2018-09-21T07:14:11.624Z,9.63
2018-09-21T07:16:38.873Z,9.00
2018-09-21T07:19:06.286Z,8.83
2018-09-21T07:21:33.545Z,8.80
2018-09-21T07:24:00.806Z,9.90
2018-09-21T07:26:28.082Z,9.57
2018-09-21T07:28:55.338Z,9.80
2018-09-21T07:31:22.634Z,9.30
2018-09-21T07:33:49.861Z,9.60
2018-09-21T07:36:17.148Z,9.20
2018-09-21T07:38:44.397Z,8.50
2018-09-21T07:41:11.657Z,9.50
2018-09-21T07:43:38.888Z,9.03
2018-09-21T07:46:06.400Z,8.40
2018-09-21T07:48:33.653Z,8.53
2018-09-21T07:51:00.924Z,8.60
2018-09-21T07:53:28.217Z,8.30
2018-09-21T07:55:55.486Z,9.43
2018-09-21T07:58:22.737Z,9.20
2018-09-21T08:00:50.038Z,8.27
2018-09-21T08:03:17.367Z,10.50
2018-09-21T08:05:44.724Z,9.13
2018-09-21T08:08:12.034Z,9.00
2018-09-21T08:10:39.331Z,8.33
2018-09-21T08:13:06.703Z,8.00
2018-09-21T08:15:34.074Z,9.47
2018-09-21T08:18:01.397Z,7.97
2018-09-21T08:20:28.713Z,8.63
2018-09-21T08:22:56.214Z,8.83
2018-09-21T08:25:23.713Z,8.70
2018-09-21T08:27:51.045Z,7.53
2018-09-21T08:30:18.395Z,9.20
2018-09-21T08:32:45.718Z,9.07
2018-09-21T08:35:13.047Z,8.77
2018-09-21T08:37:40.376Z,9.37
2018-09-21T08:40:08.068Z,9.53
2018-09-21T08:42:36.114Z,7.80
2018-09-21T08:45:03.634Z,8.97
2018-09-21T08:47:30.946Z,7.53
2018-09-21T08:49:58.258Z,8.03
2018-09-21T08:52:25.594Z,8.50
2018-09-21T08:54:52.931Z,7.40
2018-09-21T08:57:20.254Z,8.30
2018-09-21T08:59:47.555Z,8.10
2018-09-21T09:02:14.929Z,7.53
2018-09-21T09:04:42.278Z,8.87
2018-09-21T09:07:09.606Z,7.30
2018-09-21T09:09:36.930Z,7.67
2018-09-21T09:12:04.286Z,8.27
2018-09-21T09:14:31.762Z,7.90
2018-09-21T09:16:59.080Z,8.00
2018-09-21T09:19:26.426Z,7.80
2018-09-21T09:21:53.813Z,6.47
2018-09-21T09:24:21.130Z,8.10
2018-09-21T09:26:48.514Z,6.90
2018-09-21T09:29:15.830Z,7.80
2018-09-21T09:31:43.149Z,6.87
2018-09-21T09:34:10.506Z,7.73
2018-09-21T09:36:37.813Z,7.13
2018-09-21T09:39:09.061Z,7.90
2018-09-21T09:41:39.154Z,8.20
2018-09-21T09:44:06.494Z,7.57
2018-09-21T09:46:33.825Z,7.50
2018-09-21T09:49:01.247Z,6.63
2018-09-21T09:51:28.505Z,7.67
2018-09-21T09:53:55.853Z,7.30
2018-09-21T09:56:23.182Z,7.67
2018-09-21T09:58:50.489Z,7.20
2018-09-21T10:01:17.782Z,7.40
2018-09-21T10:03:45.150Z,7.70
2018-09-21T10:06:12.406Z,7.90
2018-09-21T10:08:39.693Z,7.97
2018-09-21T10:11:06.981Z,7.20
2018-09-21T10:13:34.265Z,7.40
2018-09-21T10:16:02.628Z,7.97
2018-09-21T10:18:29.905Z,7.10
2018-09-21T10:20:57.194Z,7.97
2018-09-21T10:23:24.479Z,7.30
2018-09-21T10:25:51.744Z,7.50
2018-09-21T10:28:19.174Z,7.60
2018-09-21T10:30:46.383Z,8.10
2018-09-21T10:33:13.725Z,7.10
2018-09-21T10:35:41.036Z,7.70
2018-09-21T10:38:08.241Z,7.87
2018-09-21T10:40:35.526Z,7.77
2018-09-21T10:43:02.888Z,7.83
2018-09-21T10:45:30.125Z,8.53
2018-09-21T10:47:57.398Z,10.53
2018-09-21T10:50:24.702Z,8.30
2018-09-21T10:52:52.032Z,8.23
2018-09-21T10:55:19.317Z,7.60
2018-09-21T10:57:46.604Z,7.90
2018-09-21T11:00:13.885Z,8.03
2018-09-21T11:02:41.220Z,8.30
2018-09-21T11:05:08.565Z,7.70
2018-09-21T11:07:35.919Z,8.93
2018-09-21T11:10:03.332Z,9.40
2018-09-21T11:12:30.663Z,9.30
2018-09-21T11:14:58.189Z,9.40
2018-09-21T11:17:25.500Z,8.27
2018-09-21T11:19:53.057Z,7.83
2018-09-21T11:22:20.377Z,6.90
2018-09-21T11:24:47.664Z,8.23
2018-09-21T11:27:14.974Z,7.40
2018-09-21T11:29:42.294Z,6.20
2018-09-21T11:32:09.619Z,7.77
2018-09-21T11:34:36.987Z,7.10
2018-09-21T11:37:04.331Z,7.67
2018-09-21T11:39:31.645Z,7.07
2018-09-21T11:41:58.994Z,7.43
2018-09-21T11:44:26.325Z,6.40
2018-09-21T11:46:53.792Z,6.83
2018-09-21T11:49:21.013Z,6.50
2018-09-21T11:51:48.340Z,7.07
2018-09-21T11:54:15.696Z,6.50
2018-09-21T11:56:43.018Z,6.20
2018-09-21T11:59:10.363Z,6.00
2018-09-21T12:01:37.740Z,6.57
2018-09-21T12:04:05.049Z,6.37
2018-09-21T12:06:32.331Z,6.93
2018-09-21T12:08:59.677Z,5.97
2018-09-21T12:11:26.996Z,5.97
2018-09-21T12:13:54.289Z,5.87
2018-09-21T12:16:21.583Z,5.97
2018-09-21T12:18:48.900Z,6.10
2018-09-21T12:21:16.194Z,5.43
2018-09-21T12:23:43.522Z,5.17
2018-09-21T12:26:10.806Z,4.70
2018-09-21T12:28:38.213Z,5.43
2018-09-21T12:31:05.573Z,5.40
2018-09-21T12:33:33.094Z,4.97
2018-09-21T12:36:00.429Z,5.40
2018-09-21T12:38:27.671Z,5.33
2018-09-21T12:40:55.038Z,5.40
2018-09-21T12:43:22.300Z,5.07
2018-09-21T12:45:49.589Z,5.50
2018-09-21T12:48:16.886Z,4.50
2018-09-21T12:50:44.188Z,4.90
2018-09-21T12:53:11.492Z,5.60
2018-09-21T12:55:38.777Z,6.57
2018-09-21T12:58:06.185Z,4.50
2018-09-21T13:00:39.100Z,3.90
2018-09-21T13:03:06.385Z,4.47
2018-09-21T13:05:33.660Z,3.37
2018-09-21T13:08:00.991Z,5.23
2018-09-21T13:10:28.358Z,4.47
2018-09-21T13:12:55.667Z,3.80
2018-09-21T13:15:22.976Z,4.77
2018-09-21T13:17:50.302Z,3.40
2018-09-21T13:20:17.613Z,3.63
2018-09-21T13:22:44.926Z,3.50
2018-09-21T13:25:12.259Z,3.27
2018-09-21T13:27:39.570Z,3.63
2018-09-21T13:30:06.911Z,11.93
2018-09-21T13:32:34.223Z,12.50
2018-09-21T13:35:01.531Z,6.90
2018-09-21T13:37:28.851Z,11.00
2018-09-21T13:39:56.170Z,4.30
2018-09-21T13:42:23.503Z,7.43
2018-09-21T13:44:50.817Z,4.43
2018-09-21T13:47:18.117Z,3.20
2018-09-21T13:49:45.474Z,4.10
2018-09-21T13:52:12.829Z,3.37
2018-09-21T13:54:40.137Z,3.40
2018-09-21T13:57:07.548Z,3.60
2018-09-21T13:59:34.891Z,3.90
2018-09-21T14:02:02.194Z,5.27
2018-09-21T14:04:29.469Z,3.60
2018-09-21T14:06:56.745Z,3.53
2018-09-21T14:09:24.139Z,3.63
2018-09-21T14:11:51.417Z,4.20
2018-09-21T14:14:18.789Z,4.57
2018-09-21T14:16:46.067Z,3.83
2018-09-21T14:19:13.393Z,3.97
2018-09-21T14:21:40.661Z,3.90
2018-09-21T14:24:08.008Z,4.00
2018-09-21T14:26:35.519Z,3.80
2018-09-21T14:29:02.895Z,3.53
2018-09-21T14:31:30.153Z,3.00
2018-09-21T14:33:57.446Z,4.03
2018-09-21T14:36:25.014Z,3.40
2018-09-21T14:38:52.296Z,4.27
2018-09-21T14:41:19.582Z,4.10
2018-09-21T14:43:46.969Z,5.13
2018-09-21T14:46:14.242Z,10.80
2018-09-21T14:48:41.529Z,6.57
2018-09-21T14:51:08.805Z,8.30
2018-09-21T14:53:36.106Z,4.43
2018-09-21T14:56:04.253Z,4.37
2018-09-21T14:58:31.544Z,5.23
2018-09-21T15:00:58.956Z,3.73
2018-09-21T15:03:26.285Z,1.73
2018-09-21T15:05:53.599Z,1.40
2018-09-21T15:08:20.916Z,1.67
2018-09-21T15:10:48.286Z,1.63
2018-09-21T15:13:15.601Z,1.87
2018-09-21T15:15:42.920Z,1.77
2018-09-21T15:18:10.242Z,1.80
2018-09-21T15:20:37.566Z,2.20
2018-09-21T15:23:04.866Z,1.60
2018-09-21T15:25:32.164Z,1.00
2018-09-21T15:27:59.443Z,1.20
2018-09-21T15:30:26.768Z,1.30
2018-09-21T15:32:54.060Z,2.40
2018-09-21T15:35:21.365Z,1.57
2018-09-21T15:37:48.720Z,1.47
2018-09-21T15:40:16.156Z,2.10
2018-09-21T15:42:43.488Z,2.30
2018-09-21T15:45:10.817Z,1.40
2018-09-21T15:47:38.173Z,2.03
2018-09-21T15:50:05.657Z,2.33
2018-09-21T15:52:32.945Z,1.73
2018-09-21T15:55:00.262Z,1.67
2018-09-21T15:57:27.563Z,1.70
2018-09-21T15:59:55.864Z,1.90
2018-09-21T16:02:23.173Z,1.43
2018-09-21T16:04:50.470Z,1.60
2018-09-21T16:07:17.761Z,2.30
2018-09-21T16:09:45.107Z,2.00
2018-09-21T16:12:12.425Z,1.70
2018-09-21T16:14:39.764Z,1.80
2018-09-21T16:17:07.073Z,1.90
2018-09-21T16:19:34.369Z,1.80
2018-09-21T16:22:01.726Z,1.80
2018-09-21T16:24:29.046Z,1.60
2018-09-21T16:26:56.385Z,1.63
2018-09-21T16:29:23.770Z,1.70
2018-09-21T16:31:51.169Z,1.60
2018-09-21T16:34:18.479Z,1.63
2018-09-21T16:36:45.845Z,2.00
2018-09-21T16:39:13.211Z,1.90
2018-09-21T16:41:40.778Z,2.43
2018-09-21T16:44:08.369Z,2.10
2018-09-21T16:46:36.384Z,2.20
2018-09-21T16:49:03.680Z,1.73
2018-09-21T16:51:31.005Z,2.10
2018-09-21T16:53:58.278Z,2.30
2018-09-21T16:56:25.558Z,1.73
2018-09-21T16:58:53.185Z,1.93
2018-09-21T17:01:20.394Z,1.93
2018-09-21T17:03:47.721Z,1.43
2018-09-21T17:06:14.986Z,1.43
2018-09-21T17:08:42.254Z,2.00
2018-09-21T17:11:09.557Z,1.70
2018-09-21T17:13:36.797Z,1.87
2018-09-21T17:16:04.112Z,2.40
2018-09-21T17:18:31.391Z,1.90
2018-09-21T17:20:58.747Z,1.97
2018-09-21T17:23:25.989Z,2.17
2018-09-21T17:25:53.562Z,2.33
2018-09-21T17:28:20.906Z,2.37
2018-09-21T17:30:48.192Z,2.10
2018-09-21T17:33:15.473Z,2.50
2018-09-21T17:35:42.765Z,2.17
2018-09-21T17:38:10.310Z,2.10
2018-09-21T17:40:37.617Z,2.10
2018-09-21T17:43:05.457Z,2.20
2018-09-21T17:45:32.733Z,2.10
2018-09-21T17:47:59.993Z,2.50
2018-09-21T17:50:27.317Z,2.23
2018-09-21T17:52:54.622Z,2.53
2018-09-21T17:55:22.999Z,2.03
2018-09-21T17:57:50.281Z,2.30
2018-09-21T18:00:17.594Z,2.43
2018-09-21T18:02:44.901Z,1.93
2018-09-21T18:05:12.209Z,1.97
2018-09-21T18:07:39.493Z,2.40
2018-09-21T18:10:06.911Z,3.13
2018-09-21T18:12:34.209Z,2.77
2018-09-21T18:15:01.626Z,2.13
2018-09-21T18:17:28.941Z,2.17
2018-09-21T18:19:56.358Z,2.27
2018-09-21T18:22:23.709Z,2.47
2018-09-21T18:24:51.022Z,2.90
2018-09-21T18:27:18.313Z,2.50
2018-09-21T18:29:45.618Z,2.63
2018-09-21T18:32:12.889Z,2.10
2018-09-21T18:34:40.171Z,2.70
2018-09-21T18:37:07.525Z,2.20
2018-09-21T18:39:34.819Z,2.70
2018-09-21T18:42:02.113Z,2.73
2018-09-21T18:44:29.405Z,2.27
2018-09-21T18:46:56.741Z,2.77
2018-09-21T18:49:24.034Z,2.20
2018-09-21T18:51:51.349Z,2.67
2018-09-21T18:54:18.665Z,3.00
2018-09-21T18:56:46.052Z,2.60
2018-09-21T18:59:13.452Z,2.50
2018-09-21T19:01:40.744Z,2.70
2018-09-21T19:04:08.150Z,2.30
2018-09-21T19:06:35.344Z,2.40
2018-09-21T19:09:02.897Z,2.10
2018-09-21T19:11:30.263Z,3.00
2018-09-21T19:13:57.537Z,2.53
2018-09-21T19:16:24.849Z,2.83
2018-09-21T19:18:52.156Z,2.73
2018-09-21T19:21:19.408Z,2.73
2018-09-21T19:23:46.698Z,2.87
2018-09-21T19:26:14.025Z,2.70
2018-09-21T19:28:41.324Z,2.90
2018-09-21T19:31:08.880Z,2.63
2018-09-21T19:33:36.232Z,2.87
2018-09-21T19:36:03.533Z,3.17
2018-09-21T19:38:30.828Z,2.40
2018-09-21T19:40:58.094Z,4.20
2018-09-21T19:43:25.402Z,3.40
2018-09-21T19:45:52.668Z,3.40
2018-09-21T19:48:20.108Z,3.10
2018-09-21T19:50:47.377Z,3.70
2018-09-21T19:53:14.669Z,3.10
2018-09-21T19:55:41.961Z,3.27
2018-09-21T19:58:10.007Z,3.03
2018-09-21T20:00:37.360Z,3.80
2018-09-21T20:03:04.681Z,4.20
2018-09-21T20:05:32.041Z,3.90
2018-09-21T20:07:59.321Z,3.60
2018-09-21T20:10:26.601Z,4.73
2018-09-21T20:12:53.892Z,4.00
2018-09-21T20:15:21.161Z,4.10
2018-09-21T20:17:48.886Z,4.03
2018-09-21T20:20:16.188Z,5.00
2018-09-21T20:22:43.469Z,4.07
2018-09-21T20:25:10.926Z,4.30
2018-09-21T20:27:38.164Z,3.27
2018-09-21T20:30:11.338Z,3.73
2018-09-21T20:32:44.166Z,4.30
2018-09-21T20:35:11.577Z,4.63
2018-09-21T20:37:39.315Z,4.37
2018-09-21T20:40:06.649Z,5.07
2018-09-21T20:42:33.934Z,4.43
2018-09-21T20:45:01.233Z,4.60
2018-09-21T20:47:28.497Z,4.40
2018-09-21T20:49:55.800Z,5.43
2018-09-21T20:52:23.077Z,4.47
2018-09-21T20:54:50.368Z,5.70
2018-09-21T20:57:17.726Z,5.30
2018-09-21T20:59:45.017Z,5.57
2018-09-21T21:02:12.268Z,4.90
2018-09-21T21:04:39.510Z,4.47
2018-09-21T21:07:06.761Z,5.17
2018-09-21T21:09:34.049Z,5.10
2018-09-21T21:12:01.298Z,5.13
2018-09-21T21:14:28.572Z,6.17
2018-09-21T21:16:55.820Z,6.43
2018-09-21T21:19:23.325Z,6.33
2018-09-21T21:21:50.616Z,5.87
2018-09-21T21:24:17.866Z,6.13
2018-09-21T21:26:45.224Z,6.23
2018-09-21T21:29:12.502Z,5.33
2018-09-21T21:31:39.752Z,5.10
2018-09-21T21:34:07.005Z,4.73
2018-09-21T21:36:34.596Z,4.67
2018-09-21T21:39:02.138Z,5.57
2018-09-21T21:41:29.404Z,5.33
2018-09-21T21:43:56.645Z,5.27
2018-09-21T21:46:23.888Z,5.43
2018-09-21T21:48:51.116Z,5.47
2018-09-21T21:51:18.364Z,4.60
2018-09-21T21:53:45.612Z,4.40
2018-09-21T21:56:12.844Z,3.90
2018-09-21T21:58:40.234Z,3.20
2018-09-21T22:01:13.061Z,3.43
2018-09-21T22:03:40.381Z,3.40
2018-09-21T22:06:07.697Z,3.40
2018-09-21T22:08:34.989Z,3.07
2018-09-21T22:11:06.842Z,2.60
2018-09-21T22:13:39.713Z,2.40
2018-09-21T22:16:06.985Z,2.13
2018-09-21T22:18:34.269Z,2.57
2018-09-21T22:21:01.544Z,2.43
2018-09-21T22:23:28.835Z,2.73
2018-09-21T22:25:56.105Z,2.10
2018-09-21T22:28:23.396Z,2.40
2018-09-21T22:30:50.710Z,2.40
2018-09-21T22:33:17.992Z,1.93
2018-09-21T22:35:45.277Z,2.10
2018-09-21T22:38:12.574Z,2.00
2018-09-21T22:40:39.849Z,2.43
2018-09-21T22:43:07.248Z,2.07
2018-09-21T22:45:34.527Z,2.00
2018-09-21T22:48:01.809Z,2.20
2018-09-21T22:50:29.094Z,2.00
2018-09-21T22:52:56.373Z,2.10
2018-09-21T22:55:23.673Z,2.10
2018-09-21T22:57:51.029Z,2.13
2018-09-21T23:00:18.337Z,2.60
2018-09-21T23:02:45.589Z,2.20
2018-09-21T23:05:12.891Z,1.70
2018-09-21T23:07:40.252Z,1.63
2018-09-21T23:10:07.560Z,3.80
2018-09-21T23:12:34.812Z,1.93
2018-09-21T23:15:02.086Z,2.00
2018-09-21T23:17:29.372Z,1.57
2018-09-21T23:19:56.643Z,2.40
2018-09-21T23:22:23.898Z,2.10
2018-09-21T23:24:51.173Z,2.30
2018-09-21T23:27:18.417Z,1.87
2018-09-21T23:29:45.660Z,1.70
2018-09-21T23:32:12.896Z,1.73
2018-09-21T23:34:40.315Z,1.70
2018-09-21T23:37:07.584Z,1.93
2018-09-21T23:39:34.845Z,1.70
2018-09-21T23:42:02.099Z,1.93
2018-09-21T23:44:29.348Z,1.60
2018-09-21T23:46:56.628Z,2.00
2018-09-21T23:49:23.989Z,2.33
2018-09-21T23:51:51.356Z,2.10
2018-09-21T23:54:18.631Z,1.80
2018-09-21T23:56:45.916Z,1.97
2018-09-21T23:59:13.274Z,1.60
